Time;durP1;ratioP1;P1;durP2;ratioP2;P2;SDS_P1;SDS_P2;PMS_P1;PMS_P2;Temp;Humidity;BMP_temperature;BMP_pressure;BME280_temperature;BME280_humidity;BME280_pressure;Samples;Min_cycle;Max_cycle;Signal;HPM_P1;HPM_P2
2023/05/26 00:01:20;;;;;;;;;;;;;;;;;;5043901;28;19931;-69
2023/05/26 00:03:48;;;;;;;;;;;;;;;;;;5048099;28;19960;-70
2023/05/26 00:06:15;;;;;;;;;;;;;;;;;;5050445;28;19924;-69
2023/05/26 00:08:42;;;;;;;;;;;;;;;;;;5051213;28;20027;-72
2023/05/26 00:11:09;;;;;;;;;;;;;;;;;;5046885;28;20024;-70
2023/05/26 00:13:36;;;;;;;;;;;;;;;;;;5046849;28;20370;-68
2023/05/26 00:16:03;;;;;;;;;;;;;;;;;;5046188;28;20012;-68
2023/05/26 00:18:31;;;;;;;;;;;;;;;;;;5038926;28;19970;-69
2023/05/26 00:20:58;;;;;;;;;;;;;;;;;;5047590;28;19925;-69
2023/05/26 00:23:25;;;;;;;;;;;;;;;;;;5050910;28;20012;-70
2023/05/26 00:25:52;;;;;;;;;;;;;;;;;;5046125;28;19928;-69
2023/05/26 00:28:19;;;;;;;;;;;;;;;;;;5052758;28;20444;-70
2023/05/26 00:30:46;;;;;;;;;;;;;;;;;;5051249;28;20358;-70
2023/05/26 00:33:13;;;;;;;;;;;;;;;;;;5051392;28;20015;-70
2023/05/26 00:35:40;;;;;;;;;;;;;;;;;;5044472;28;19925;-70
2023/05/26 00:38:09;;;;;;;;;;;;;;;;;;5047600;28;20015;-70
2023/05/26 00:40:36;;;;;;;;;;;;;;;;;;5049848;28;20027;-70
2023/05/26 00:43:03;;;;;;;;;;;;;;;;;;5054252;28;19928;-72
2023/05/26 00:45:30;;;;;;;;;;;;;;;;;;5050883;28;19928;-69
2023/05/26 00:47:57;;;;;;;;;;;;;;;;;;5051308;28;20011;-69
2023/05/26 00:50:24;;;;;;;;;;;;;;;;;;5050517;28;19932;-70
2023/05/26 00:52:51;;;;;;;;;;;;;;;;;;5052666;28;19925;-69
2023/05/26 00:55:18;;;;;;;;;;;;;;;;;;5045936;28;19925;-70
2023/05/26 00:57:45;;;;;;;;;;;;;;;;;;5054763;28;19928;-70
2023/05/26 01:00:12;;;;;;;;;;;;;;;;;;5051949;28;19932;-70
2023/05/26 01:02:39;;;;;;;;;;;;;;;;;;5044311;28;20296;-70
2023/05/26 01:05:06;;;;;;;;;;;;;;;;;;5048600;28;20569;-70
2023/05/26 01:07:33;;;;;;;;;;;;;;;;;;5051604;28;19928;-70
2023/05/26 01:10:00;;;;;;;;;;;;;;;;;;5049645;28;20358;-70
2023/05/26 01:12:27;;;;;;;;;;;;;;;;;;5052845;28;19983;-70
2023/05/26 01:14:55;;;;;;;;;;;;;;;;;;5050421;28;19931;-70
2023/05/26 01:17:22;;;;;;;;;;;;;;;;;;5053814;28;19948;-70
2023/05/26 01:19:50;;;;;;;;;;;;;;;;;;5052003;28;20294;-70
2023/05/26 01:22:17;;;;;;;;;;;;;;;;;;5050705;28;19925;-70
2023/05/26 01:24:44;;;;;;;;;;;;;;;;;;5047821;28;19932;-70
2023/05/26 01:27:11;;;;;;;;;;;;;;;;;;5051007;28;20031;-69
2023/05/26 01:29:38;;;;;;;;;;;;;;;;;;5053401;28;20035;-70
2023/05/26 01:32:05;;;;;;;;;;;;;;;;;;5048475;28;19924;-70
2023/05/26 01:34:32;;;;;;;;;;;;;;;;;;5047854;28;20400;-70
2023/05/26 01:36:59;;;;;;;;;;;;;;;;;;5050312;28;19944;-70
2023/05/26 01:39:26;;;;;;;;;;;;;;;;;;5046851;28;19925;-70
2023/05/26 01:41:53;;;;;;;;;;;;;;;;;;5048991;28;19925;-69
2023/05/26 01:44:20;;;;;;;;;;;;;;;;;;5049058;28;20031;-70
2023/05/26 01:46:47;;;;;;;;;;;;;;;;;;5045493;28;19925;-70
2023/05/26 01:49:14;;;;;;;;;;;;;;;;;;5049207;28;19925;-70
2023/05/26 01:51:41;;;;;;;;;;;;;;;;;;5051827;28;19975;-70
2023/05/26 01:54:08;;;;;;;;;;;;;;;;;;5044005;28;20014;-70
2023/05/26 01:56:35;;;;;;;;;;;;;;;;;;5044080;28;19925;-70
2023/05/26 01:59:02;;;;;;;;;;;;;;;;;;5053428;28;20019;-70
2023/05/26 02:01:29;;;;;;;;;;;;;;;;;;5050078;28;19925;-70
2023/05/26 02:03:56;;;;;;;;;;;;;;;;;;5051656;28;20303;-70
2023/05/26 02:06:23;;;;;;;;;;;;;;;;;;5048633;28;20039;-69
2023/05/26 02:08:51;;;;;;;;;;;;;;;;;;5052234;28;20012;-70
2023/05/26 02:11:18;;;;;;;;;;;;;;;;;;5048153;28;19940;-70
2023/05/26 02:13:46;;;;;;;;;;;;;;;;;;5047725;28;19931;-69
2023/05/26 02:16:13;;;;;;;;;;;;;;;;;;5051425;28;20376;-69
2023/05/26 02:18:40;;;;;;;;;;;;;;;;;;5053871;28;19974;-69
2023/05/26 02:21:07;;;;;;;;;;;;;;;;;;5051060;28;20008;-69
2023/05/26 02:23:34;;;;;;;;;;;;;;;;;;5052841;28;20020;-69
2023/05/26 02:26:01;;;;;;;;;;;;;;;;;;5050380;28;20088;-69
2023/05/26 02:28:28;;;;;;;;;;;;;;;;;;5053857;28;19932;-70
2023/05/26 02:30:55;;;;;;;;;;;;;;;;;;5044969;28;20034;-69
2023/05/26 02:33:22;;;;;;;;;;;;;;;;;;5041920;28;19928;-69
2023/05/26 02:35:49;;;;;;;;;;;;;;;;;;5051046;28;19925;-69
2023/05/26 02:38:16;;;;;;;;;;;;;;;;;;5046532;28;19924;-69
2023/05/26 02:40:43;;;;;;;;;;;;;;;;;;5039292;28;19937;-69
2023/05/26 02:43:10;;;;;;;;;;;;;;;;;;5045735;28;19925;-69
2023/05/26 02:45:37;;;;;;;;;;;;;;;;;;5050344;28;20665;-70
2023/05/26 02:48:04;;;;;;;;;;;;;;;;;;5045834;28;20348;-69
2023/05/26 02:50:31;;;;;;;;;;;;;;;;;;5045431;28;19941;-69
2023/05/26 02:52:58;;;;;;;;;;;;;;;;;;5043243;28;20011;-69
2023/05/26 02:55:25;;;;;;;;;;;;;;;;;;5044492;28;19933;-69
2023/05/26 02:57:52;;;;;;;;;;;;;;;;;;5042228;28;19932;-69
2023/05/26 03:00:19;;;;;;;;;;;;;;;;;;5048352;28;20003;-69
2023/05/26 03:02:46;;;;;;;;;;;;;;;;;;5047126;28;19929;-69
2023/05/26 03:05:13;;;;;;;;;;;;;;;;;;5047780;28;19928;-69
2023/05/26 03:07:40;;;;;;;;;;;;;;;;;;5048947;28;19929;-69
2023/05/26 03:10:07;;;;;;;;;;;;;;;;;;5047284;28;20045;-69
2023/05/26 03:12:34;;;;;;;;;;;;;;;;;;5043617;28;20015;-69
2023/05/26 03:15:03;;;;;;;;;;;;;;;;;;5049716;28;20400;-69
2023/05/26 03:17:30;;;;;;;;;;;;;;;;;;5042606;28;20016;-69
2023/05/26 03:19:57;;;;;;;;;;;;;;;;;;5047680;28;19924;-69
2023/05/26 03:22:24;;;;;;;;;;;;;;;;;;5046795;28;20027;-67
2023/05/26 03:24:51;;;;;;;;;;;;;;;;;;5050138;28;19925;-67
2023/05/26 03:27:22;;;;;;;;;;;;;;;;;;5045634;28;20370;-68
2023/05/26 03:29:49;;;;;;;;;;;;;;;;;;5051874;28;19925;-68
2023/05/26 03:32:16;;;;;;;;;;;;;;;;;;5049039;28;20032;-68
2023/05/26 03:34:44;;;;;;;;;;;;;;;;;;5047802;28;19942;-67
2023/05/26 03:37:11;;;;;;;;;;;;;;;;;;5047688;28;19929;-68
2023/05/26 03:39:38;;;;;;;;;;;;;;;;;;5048447;28;20371;-68
2023/05/26 03:42:05;;;;;;;;;;;;;;;;;;5055951;28;20454;-69
2023/05/26 03:44:32;;;;;;;;;;;;;;;;;;5050292;28;19932;-68
2023/05/26 03:46:59;;;;;;;;;;;;;;;;;;5041174;28;19929;-69
2023/05/26 03:49:26;;;;;;;;;;;;;;;;;;5049371;28;19977;-69
2023/05/26 03:51:53;;;;;;;;;;;;;;;;;;5045698;28;20462;-69
2023/05/26 03:54:20;;;;;;;;;;;;;;;;;;5047061;28;20262;-69
2023/05/26 03:56:47;;;;;;;;;;;;;;;;;;5049367;28;19986;-69
2023/05/26 03:59:14;;;;;;;;;;;;;;;;;;5047401;28;20015;-69
2023/05/26 04:01:41;;;;;;;;;;;;;;;;;;5047298;28;20000;-69
2023/05/26 04:04:08;;;;;;;;;;;;;;;;;;5047415;28;19936;-68
2023/05/26 04:06:35;;;;;;;;;;;;;;;;;;5045655;28;19932;-69
2023/05/26 04:09:03;;;;;;;;;;;;;;;;;;5047760;28;19929;-68
2023/05/26 04:11:30;;;;;;;;;;;;;;;;;;5044384;28;19940;-69
2023/05/26 04:13:57;;;;;;;;;;;;;;;;;;5054820;28;20023;-69
2023/05/26 04:16:24;;;;;;;;;;;;;;;;;;5051539;28;20461;-68
2023/05/26 04:18:51;;;;;;;;;;;;;;;;;;5043265;28;19968;-68
2023/05/26 04:21:18;;;;;;;;;;;;;;;;;;5049265;28;20032;-70
2023/05/26 04:23:47;;;;;;;;;;;;;;;;;;5048603;28;20019;-68
2023/05/26 04:26:16;;;;;;;;;;;;;;;;;;5047728;28;19968;-68
2023/05/26 04:28:43;;;;;;;;;;;;;;;;;;5047905;28;19971;-69
2023/05/26 04:31:10;;;;;;;;;;;;;;;;;;5047799;28;19932;-68
2023/05/26 04:33:39;;;;;;;;;;;;;;;;;;5042182;28;19992;-69
2023/05/26 04:36:08;;;;;;;;;;;;;;;;;;5045502;28;19924;-68
2023/05/26 04:38:35;;;;;;;;;;;;;;;;;;5047069;28;19956;-68
2023/05/26 04:41:06;;;;;;;;;;;;;;;;;;5048542;28;20023;-69
2023/05/26 04:43:34;;;;;;;;;;;;;;;;;;5051502;28;19924;-68
2023/05/26 04:46:03;;;;;;;;;;;;;;;;;;5047160;28;20297;-69
2023/05/26 04:48:30;;;;;;;;;;;;;;;;;;5046135;28;20015;-69
2023/05/26 04:50:57;;;;;;;;;;;;;;;;;;5049455;28;19928;-68
2023/05/26 04:53:24;;;;;;;;;;;;;;;;;;5038564;28;20023;-69
2023/05/26 04:55:51;;;;;;;;;;;;;;;;;;5050564;28;19968;-69
2023/05/26 04:58:18;;;;;;;;;;;;;;;;;;5051065;28;19924;-69
2023/05/26 05:00:45;;;;;;;;;;;;;;;;;;5036170;28;20222;-69
2023/05/26 05:03:12;;;;;;;;;;;;;;;;;;5042435;28;19975;-68
2023/05/26 05:05:39;;;;;;;;;;;;;;;;;;5043805;28;19925;-69
2023/05/26 05:08:06;;;;;;;;;;;;;;;;;;5050266;28;20023;-69
2023/05/26 05:10:33;;;;;;;;;;;;;;;;;;5061016;28;19925;-68
2023/05/26 05:13:00;;;;;;;;;;;;;;;;;;5047862;28;19931;-68
2023/05/26 05:15:27;;;;;;;;;;;;;;;;;;5054104;28;19931;-69
2023/05/26 05:17:54;;;;;;;;;;;;;;;;;;5055642;28;20498;-68
2023/05/26 05:20:21;;;;;;;;;;;;;;;;;;5052552;28;19925;-67
2023/05/26 05:22:48;;;;;;;;;;;;;;;;;;5056133;28;19942;-69
2023/05/26 05:25:15;;;;;;;;;;;;;;;;;;5054459;28;20016;-68
2023/05/26 05:27:42;;;;;;;;;;;;;;;;;;5054252;28;20027;-68
2023/05/26 05:30:11;;;;;;;;;;;;;;;;;;5052785;28;19932;-68
2023/05/26 05:32:38;;;;;;;;;;;;;;;;;;5053847;28;19929;-70
2023/05/26 05:35:05;;;;;;;;;;;;;;;;;;5053876;28;20019;-69
2023/05/26 05:37:32;;;;;;;;;;;;;;;;;;5054287;28;19925;-69
2023/05/26 05:39:59;;;;;;;;;;;;;;;;;;5060769;28;20035;-69
2023/05/26 05:42:26;;;;;;;;;;;;;;;;;;5053538;28;19986;-69
2023/05/26 05:44:53;;;;;;;;;;;;;;;;;;5050930;28;19972;-69
2023/05/26 05:47:20;;;;;;;;;;;;;;;;;;5067505;28;20363;-69
2023/05/26 05:49:47;;;;;;;;;;;;;;;;;;5050842;28;19932;-69
2023/05/26 05:52:14;;;;;;;;;;;;;;;;;;5052310;28;20288;-69
2023/05/26 05:54:41;;;;;;;;;;;;;;;;;;5054311;28;20314;-69
2023/05/26 05:57:08;;;;;;;;;;;;;;;;;;5054833;28;19944;-69
2023/05/26 05:59:35;;;;;;;;;;;;;;;;;;5053091;28;19932;-69
2023/05/26 06:02:02;;;;;;;;;;;;;;;;;;5053094;28;20015;-69
2023/05/26 06:04:29;;;;;;;;;;;;;;;;;;5053107;28;19931;-69
2023/05/26 06:06:56;;;;;;;;;;;;;;;;;;5051362;28;20047;-69
2023/05/26 06:09:23;;;;;;;;;;;;;;;;;;5052493;28;19932;-70
2023/05/26 06:11:50;;;;;;;;;;;;;;;;;;5052282;28;19932;-69
2023/05/26 06:14:17;;;;;;;;;;;;;;;;;;5057635;28;20050;-69
2023/05/26 06:16:44;;;;;;;;;;;;;;;;;;5054664;28;19929;-69
2023/05/26 06:19:11;;;;;;;;;;;;;;;;;;5053750;28;20090;-70
2023/05/26 06:21:38;;;;;;;;;;;;;;;;;;5054048;28;19932;-70
2023/05/26 06:24:05;;;;;;;;;;;;;;;;;;5051930;28;19931;-75
2023/05/26 06:26:32;;;;;;;;;;;;;;;;;;5052096;28;19947;-70
2023/05/26 06:28:59;;;;;;;;;;;;;;;;;;5053237;28;19947;-70
2023/05/26 06:31:26;;;;;;;;;;;;;;;;;;5053508;28;20031;-70
2023/05/26 06:33:54;;;;;;;;;;;;;;;;;;5053612;28;19964;-70
2023/05/26 06:36:21;;;;;;;;;;;;;;;;;;5052502;28;19936;-69
2023/05/26 06:38:48;;;;;;;;;;;;;;;;;;5052949;28;19925;-70
2023/05/26 06:41:15;;;;;;;;;;;;;;;;;;5051993;28;19925;-70
2023/05/26 06:43:42;;;;;;;;;;;;;;;;;;5052835;28;19932;-69
2023/05/26 06:46:09;;;;;;;;;;;;;;;;;;5052338;28;19925;-69
2023/05/26 06:48:36;;;;;;;;;;;;;;;;;;5055582;28;20297;-69
2023/05/26 06:51:03;;;;;;;;;;;;;;;;;;5052586;28;19925;-69
2023/05/26 06:53:30;;;;;;;;;;;;;;;;;;5065601;28;19931;-69
2023/05/26 06:55:57;;;;;;;;;;;;;;;;;;5065491;28;19935;-69
2023/05/26 06:58:24;;;;;;;;;;;;;;;;;;5046932;28;19932;-70
2023/05/26 07:00:51;;;;;;;;;;;;;;;;;;5050445;28;20015;-69
2023/05/26 07:03:18;;;;;;;;;;;;;;;;;;5045177;28;20226;-69
2023/05/26 07:05:46;;;;;;;;;;;;;;;;;;5047938;28;20343;-70
2023/05/26 07:08:13;;;;;;;;;;;;;;;;;;5050997;28;19925;-70
2023/05/26 07:10:39;;;;;;;;;;;;;;;;;;5049914;28;19925;-70
2023/05/26 07:13:06;;;;;;;;;;;;;;;;;;5047944;28;19925;-70
2023/05/26 07:15:33;;;;;;;;;;;;;;;;;;5046651;28;19925;-71
2023/05/26 07:18:00;;;;;;;;;;;;;;;;;;5041881;28;20405;-69
2023/05/26 07:20:27;;;;;;;;;;;;;;;;;;5051479;28;20420;-69
2023/05/26 07:22:54;;;;;;;;;;;;;;;;;;5044662;28;20626;-68
2023/05/26 07:25:21;;;;;;;;;;;;;;;;;;5048129;28;19935;-70
2023/05/26 07:27:48;;;;;;;;;;;;;;;;;;5035496;28;19931;-69
2023/05/26 07:30:15;;;;;;;;;;;;;;;;;;5051979;28;19967;-70
2023/05/26 07:32:42;;;;;;;;;;;;;;;;;;5050938;28;20011;-69
2023/05/26 07:35:09;;;;;;;;;;;;;;;;;;5050497;28;19932;-69
2023/05/26 07:37:36;;;;;;;;;;;;;;;;;;5051134;28;19962;-69
2023/05/26 07:40:04;;;;;;;;;;;;;;;;;;5048716;28;19972;-68
2023/05/26 07:42:31;;;;;;;;;;;;;;;;;;5048279;28;20332;-68
2023/05/26 07:44:58;;;;;;;;;;;;;;;;;;5051482;28;19925;-69
2023/05/26 07:47:25;;;;;;;;;;;;;;;;;;5052322;28;19925;-69
2023/05/26 07:49:52;;;;;;;;;;;;;;;;;;5051920;28;20000;-69
2023/05/26 07:52:19;;;;;;;;;;;;;;;;;;5049808;28;20055;-69
2023/05/26 07:54:46;;;;;;;;;;;;;;;;;;5050428;28;20342;-69
2023/05/26 07:57:13;;;;;;;;;;;;;;;;;;5048405;28;19976;-68
2023/05/26 07:59:40;;;;;;;;;;;;;;;;;;5047990;28;20019;-68
2023/05/26 08:02:07;;;;;;;;;;;;;;;;;;5051538;28;20012;-69
2023/05/26 08:04:34;;;;;;;;;;;;;;;;;;5051177;28;19932;-69
2023/05/26 08:07:01;;;;;;;;;;;;;;;;;;5051924;28;19956;-70
2023/05/26 08:09:28;;;;;;;;;;;;;;;;;;5049348;28;20011;-69
2023/05/26 08:11:55;;;;;;;;;;;;;;;;;;5052407;28;19935;-70
2023/05/26 08:14:23;;;;;;;;;;;;;;;;;;5051401;28;19960;-71
2023/05/26 08:16:50;;;;;;;;;;;;;;;;;;5051270;28;20293;-71
2023/05/26 08:19:17;;;;;;;;;;;;;;;;;;5046143;28;19925;-71
2023/05/26 08:21:44;;;;;;;;;;;;;;;;;;5050407;28;20045;-70
2023/05/26 08:24:11;;;;;;;;;;;;;;;;;;5050000;28;20027;-71
2023/05/26 08:26:37;;;;;;;;;;;;;;;;;;5050796;28;19925;-72
2023/05/26 08:29:06;;;;;;;;;;;;;;;;;;5058474;28;20011;-73
2023/05/26 08:31:33;;;;;;;;;;;;;;;;;;5060702;28;19924;-72
2023/05/26 08:34:00;;;;;;;;;;;;;;;;;;5048602;28;20075;-68
2023/05/26 08:36:27;;;;;;;;;;;;;;;;;;5036591;28;19972;-68
2023/05/26 08:38:53;;;;;;;;;;;;;;;;;;5049392;28;20470;-74
2023/05/26 08:41:21;;;;;;;;;;;;;;;;;;5051462;28;20449;-74
2023/05/26 08:43:48;;;;;;;;;;;;;;;;;;5046880;28;20342;-75
2023/05/26 08:46:15;;;;;;;;;;;;;;;;;;5043641;28;20018;-75
2023/05/26 08:48:42;;;;;;;;;;;;;;;;;;5054656;28;19931;-74
2023/05/26 08:51:09;;;;;;;;;;;;;;;;;;5053309;28;19964;-70
2023/05/26 08:53:36;;;;;;;;;;;;;;;;;;5053626;28;19932;-70
2023/05/26 08:56:03;;;;;;;;;;;;;;;;;;5051796;28;20467;-70
2023/05/26 08:58:31;;;;;;;;;;;;;;;;;;5053006;28;20351;-69
2023/05/26 09:00:58;;;;;;;;;;;;;;;;;;5059744;28;19932;-71
2023/05/26 09:03:25;;;;;;;;;;;;;;;;;;5056524;28;19931;-69
2023/05/26 09:05:55;;;;;;;;;;;;;;;;;;5052814;28;19924;-69
2023/05/26 09:08:22;;;;;;;;;;;;;;;;;;5048563;28;19968;-69
2023/05/26 09:10:49;;;;;;;;;;;;;;;;;;5054607;28;19944;-68
2023/05/26 09:13:17;;;;;;;;;;;;;;;;;;5055471;28;19951;-69
2023/05/26 09:15:47;;;;;;;;;;;;;;;;;;5054379;28;20024;-69
2023/05/26 09:18:14;;;;;;;;;;;;;;;;;;5049546;28;20028;-68
2023/05/26 09:20:41;;;;;;;;;;;;;;;;;;5065744;28;19980;-68
2023/05/26 09:23:08;;;;;;;;;;;;;;;;;;5074238;28;20004;-69
2023/05/26 09:25:35;;;;;;;;;;;;;;;;;;5054056;28;19964;-69
2023/05/26 09:28:02;;;;;;;;;;;;;;;;;;5053972;28;20380;-69
2023/05/26 09:30:30;;;;;;;;;;;;;;;;;;5054042;28;19924;-69
2023/05/26 09:32:57;;;;;;;;;;;;;;;;;;5050675;28;19932;-69
2023/05/26 09:35:25;;;;;;;;;;;;;;;;;;5054576;28;19925;-69
2023/05/26 09:37:51;;;;;;;;;;;;;;;;;;5055291;28;19924;-68
2023/05/26 09:40:18;;;;;;;;;;;;;;;;;;5051362;28;20039;-69
2023/05/26 09:42:45;;;;;;;;;;;;;;;;;;5054174;28;19971;-69
2023/05/26 09:45:12;;;;;;;;;;;;;;;;;;5042365;28;20017;-69
2023/05/26 09:47:39;;;;;;;;;;;;;;;;;;5051955;28;20067;-68
2023/05/26 09:50:06;;;;;;;;;;;;;;;;;;5054393;28;20027;-68
2023/05/26 09:52:33;;;;;;;;;;;;;;;;;;5054271;28;20321;-68
2023/05/26 09:55:00;;;;;;;;;;;;;;;;;;5050173;28;19975;-68
2023/05/26 09:57:27;;;;;;;;;;;;;;;;;;5052125;28;19925;-68
2023/05/26 09:59:54;;;;;;;;;;;;;;;;;;5053140;28;20008;-68
2023/05/26 10:02:21;;;;;;;;;;;;;;;;;;5053810;28;19925;-67
2023/05/26 10:04:49;;;;;;;;;;;;;;;;;;5053165;28;20457;-68
2023/05/26 10:07:16;;;;;;;;;;;;;;;;;;5058378;28;20012;-67
2023/05/26 10:09:43;;;;;;;;;;;;;;;;;;5057184;28;20031;-66
2023/05/26 10:12:10;;;;;;;;;;;;;;;;;;5059705;28;19924;-67
2023/05/26 10:14:37;;;;;;;;;;;;;;;;;;5044980;28;19968;-68
2023/05/26 10:17:04;;;;;;;;;;;;;;;;;;5052933;28;19933;-68
2023/05/26 10:19:31;;;;;;;;;;;;;;;;;;5052829;28;19925;-67
2023/05/26 10:21:58;;;;;;;;;;;;;;;;;;5051177;28;20024;-68
2023/05/26 10:24:25;;;;;;;;;;;;;;;;;;5051776;28;19931;-68
2023/05/26 10:26:52;;;;;;;;;;;;;;;;;;5052300;28;20007;-69
2023/05/26 10:29:19;;;;;;;;;;;;;;;;;;5061515;28;19924;-68
2023/05/26 10:31:46;;;;;;;;;;;;;;;;;;5050395;28;19951;-68
2023/05/26 10:34:13;;;;;;;;;;;;;;;;;;5048669;28;19925;-67
2023/05/26 10:36:41;;;;;;;;;;;;;;;;;;5052887;28;20019;-68
2023/05/26 10:39:08;;;;;;;;;;;;;;;;;;5046273;28;19928;-68
2023/05/26 10:41:35;;;;;;;;;;;;;;;;;;5051551;28;20437;-68
2023/05/26 10:44:02;;;;;;;;;;;;;;;;;;5052549;28;20380;-67
2023/05/26 10:46:29;;;;;;;;;;;;;;;;;;5053303;28;19925;-69
2023/05/26 10:48:57;;;;;;;;;;;;;;;;;;5052653;28;19991;-69
2023/05/26 10:51:23;;;;;;;;;;;;;;;;;;5047977;28;19924;-68
2023/05/26 10:53:51;;;;;;;;;;;;;;;;;;5050834;28;20031;-67
2023/05/26 10:56:25;;;;;;;;;;;;;;;;;;5052149;28;19932;-69
2023/05/26 10:58:52;;;;;;;;;;;;;;;;;;5052014;28;19929;-68
2023/05/26 11:01:20;;;;;;;;;;;;;;;;;;5050297;28;22088;-67
2023/05/26 11:03:47;;;;;;;;;;;;;;;;;;5048724;28;19970;-67
2023/05/26 11:06:14;;;;;;;;;;;;;;;;;;5050181;28;19933;-68
2023/05/26 11:08:41;;;;;;;;;;;;;;;;;;5048078;28;20015;-67
2023/05/26 11:11:08;;;;;;;;;;;;;;;;;;5042273;28;19929;-68
2023/05/26 11:13:34;;;;;;;;;;;;;;;;;;5047109;28;20023;-68
2023/05/26 11:16:01;;;;;;;;;;;;;;;;;;5041302;28;20027;-68
2023/05/26 11:18:28;;;;;;;;;;;;;;;;;;5044751;28;19980;-67
2023/05/26 11:20:55;;;;;;;;;;;;;;;;;;5047337;28;19978;-67
2023/05/26 11:23:22;;;;;;;;;;;;;;;;;;5038400;28;19925;-68
2023/05/26 11:25:49;;;;;;;;;;;;;;;;;;5049654;28;20358;-67
2023/05/26 11:28:18;;;;;;;;;;;;;;;;;;5050396;28;20039;-67
2023/05/26 11:30:45;;;;;;;;;;;;;;;;;;5048982;28;19978;-67
2023/05/26 11:33:14;;;;;;;;;;;;;;;;;;5048223;28;19924;-67
2023/05/26 11:35:41;;;;;;;;;;;;;;;;;;5055432;28;20360;-68
2023/05/26 11:38:08;;;;;;;;;;;;;;;;;;5055019;28;20027;-67
2023/05/26 11:40:35;;;;;;;;;;;;;;;;;;5049081;28;19924;-67
2023/05/26 11:43:02;;;;;;;;;;;;;;;;;;5052105;28;20023;-67
2023/05/26 11:45:29;;;;;;;;;;;;;;;;;;5051659;28;20000;-67
2023/05/26 11:47:56;;;;;;;;;;;;;;;;;;5049842;28;19972;-67
2023/05/26 11:50:23;;;;;;;;;;;;;;;;;;5051504;28;20386;-67
2023/05/26 11:52:50;;;;;;;;;;;;;;;;;;5053263;28;20471;-67
2023/05/26 11:55:18;;;;;;;;;;;;;;;;;;5042031;28;20023;-67
2023/05/26 11:57:46;;;;;;;;;;;;;;;;;;5032591;28;19925;-68
2023/05/26 12:00:13;;;;;;;;;;;;;;;;;;5043687;28;19969;-67
2023/05/26 12:02:40;;;;;;;;;;;;;;;;;;5049332;28;19975;-67
2023/05/26 12:05:07;;;;;;;;;;;;;;;;;;5051851;28;20457;-67
2023/05/26 12:07:36;;;;;;;;;;;;;;;;;;5049996;28;19929;-67
2023/05/26 12:10:03;;;;;;;;;;;;;;;;;;5046642;28;19929;-68
2023/05/26 12:12:32;;;;;;;;;;;;;;;;;;5048208;28;19951;-68
2023/05/26 12:14:59;;;;;;;;;;;;;;;;;;5048534;28;19932;-68
2023/05/26 12:17:26;;;;;;;;;;;;;;;;;;5048386;28;19933;-68
2023/05/26 12:19:53;;;;;;;;;;;;;;;;;;5047751;28;20016;-68
2023/05/26 12:22:20;;;;;;;;;;;;;;;;;;5051628;28;19932;-68
2023/05/26 12:24:47;;;;;;;;;;;;;;;;;;5048832;28;20008;-70
2023/05/26 12:27:14;;;;;;;;;;;;;;;;;;5047321;28;20024;-68
2023/05/26 12:29:41;;;;;;;;;;;;;;;;;;5051187;28;20308;-69
2023/05/26 12:32:08;;;;;;;;;;;;;;;;;;5053367;28;20372;-68
2023/05/26 12:34:35;;;;;;;;;;;;;;;;;;5054097;28;19940;-68
2023/05/26 12:37:02;;;;;;;;;;;;;;;;;;5048751;28;19933;-68
2023/05/26 12:39:29;;;;;;;;;;;;;;;;;;5043217;28;20427;-68
2023/05/26 12:41:56;;;;;;;;;;;;;;;;;;5052987;28;19925;-68
2023/05/26 12:44:23;;;;;;;;;;;;;;;;;;5048677;28;20396;-68
2023/05/26 12:46:50;;;;;;;;;;;;;;;;;;5053466;28;20358;-68
2023/05/26 12:49:17;;;;;;;;;;;;;;;;;;5053218;28;19932;-68
2023/05/26 12:51:44;;;;;;;;;;;;;;;;;;5054206;28;20533;-68
2023/05/26 12:54:11;;;;;;;;;;;;;;;;;;5050846;28;20012;-68
2023/05/26 12:56:38;;;;;;;;;;;;;;;;;;5052371;28;20008;-68
2023/05/26 12:59:05;;;;;;;;;;;;;;;;;;5046924;28;19967;-68
2023/05/26 13:01:32;;;;;;;;;;;;;;;;;;5049603;28;19925;-68
2023/05/26 13:03:59;;;;;;;;;;;;;;;;;;5049755;28;19925;-68
2023/05/26 13:06:26;;;;;;;;;;;;;;;;;;5053947;28;20020;-70
2023/05/26 13:08:54;;;;;;;;;;;;;;;;;;5052301;28;20019;-69
2023/05/26 13:11:23;;;;;;;;;;;;;;;;;;5050846;28;19924;-70
2023/05/26 13:13:49;;;;;;;;;;;;;;;;;;5051563;28;19971;-70
2023/05/26 13:16:16;;;;;;;;;;;;;;;;;;5055037;28;20003;-70
2023/05/26 13:18:43;;;;;;;;;;;;;;;;;;5051918;28;19936;-70
2023/05/26 13:21:10;;;;;;;;;;;;;;;;;;5051557;28;20019;-70
2023/05/26 13:23:37;;;;;;;;;;;;;;;;;;5047810;28;19925;-70
2023/05/26 13:26:04;;;;;;;;;;;;;;;;;;5052445;28;19924;-72
2023/05/26 13:28:32;;;;;;;;;;;;;;;;;;5050094;28;20035;-69
2023/05/26 13:30:59;;;;;;;;;;;;;;;;;;5049102;28;20398;-70
2023/05/26 13:33:26;;;;;;;;;;;;;;;;;;5050406;28;19932;-70
2023/05/26 13:35:53;;;;;;;;;;;;;;;;;;5054556;28;19956;-74
2023/05/26 13:38:20;;;;;;;;;;;;;;;;;;5052370;28;22148;-73
2023/05/26 13:40:47;;;;;;;;;;;;;;;;;;5048743;28;20397;-74
2023/05/26 13:43:15;;;;;;;;;;;;;;;;;;5045199;28;20336;-74
2023/05/26 13:45:41;;;;;;;;;;;;;;;;;;5054819;28;19933;-74
2023/05/26 13:48:09;;;;;;;;;;;;;;;;;;5054774;28;19948;-75
2023/05/26 13:50:36;;;;;;;;;;;;;;;;;;5053943;28;19931;-74
2023/05/26 13:53:03;;;;;;;;;;;;;;;;;;5055660;28;20016;-74
2023/05/26 13:55:30;;;;;;;;;;;;;;;;;;5038474;28;20023;-72
2023/05/26 13:57:57;;;;;;;;;;;;;;;;;;5050863;28;20398;-70
2023/05/26 14:00:24;;;;;;;;;;;;;;;;;;5045262;28;19924;-72
2023/05/26 14:02:51;;;;;;;;;;;;;;;;;;5042007;28;19924;-71
2023/05/26 14:05:18;;;;;;;;;;;;;;;;;;5035295;28;19925;-72
2023/05/26 14:07:45;;;;;;;;;;;;;;;;;;5051059;28;20020;-73
2023/05/26 14:10:12;;;;;;;;;;;;;;;;;;5042656;28;19925;-74
2023/05/26 14:12:39;;;;;;;;;;;;;;;;;;5050053;28;19932;-73
2023/05/26 14:15:06;;;;;;;;;;;;;;;;;;5044927;28;19924;-70
2023/05/26 14:17:34;;;;;;;;;;;;;;;;;;5037371;28;20939;-70
2023/05/26 14:20:02;;;;;;;;;;;;;;;;;;5046327;28;21489;-69
2023/05/26 14:22:29;;;;;;;;;;;;;;;;;;5047793;28;19933;-70
2023/05/26 14:24:56;;;;;;;;;;;;;;;;;;5036731;28;19929;-71
2023/05/26 14:27:23;;;;;;;;;;;;;;;;;;5048343;28;19925;-70
2023/05/26 14:29:50;;;;;;;;;;;;;;;;;;5047601;28;19924;-69
2023/05/26 14:32:17;;;;;;;;;;;;;;;;;;5035212;28;19935;-69
2023/05/26 14:34:45;;;;;;;;;;;;;;;;;;5047245;28;20012;-71
2023/05/26 14:37:12;;;;;;;;;;;;;;;;;;5041426;28;19929;-70
2023/05/26 14:39:39;;;;;;;;;;;;;;;;;;5042225;28;19928;-70
2023/05/26 14:42:07;;;;;;;;;;;;;;;;;;5049884;28;20031;-68
2023/05/26 14:44:34;;;;;;;;;;;;;;;;;;5049285;28;19928;-70
2023/05/26 14:47:01;;;;;;;;;;;;;;;;;;5036720;28;19924;-70
2023/05/26 14:49:28;;;;;;;;;;;;;;;;;;5044800;28;19952;-71
2023/05/26 14:51:55;;;;;;;;;;;;;;;;;;5043034;28;20303;-70
2023/05/26 14:54:22;;;;;;;;;;;;;;;;;;5044211;28;19936;-70
2023/05/26 14:56:49;;;;;;;;;;;;;;;;;;5040543;28;19933;-70
2023/05/26 14:59:16;;;;;;;;;;;;;;;;;;5048912;28;19955;-70
2023/05/26 15:01:43;;;;;;;;;;;;;;;;;;5042213;28;19925;-70
2023/05/26 15:04:11;;;;;;;;;;;;;;;;;;5044944;28;19925;-70
2023/05/26 15:06:38;;;;;;;;;;;;;;;;;;5042407;28;20291;-70
2023/05/26 15:09:05;;;;;;;;;;;;;;;;;;5043126;28;20012;-70
2023/05/26 15:11:33;;;;;;;;;;;;;;;;;;5037271;28;19932;-70
2023/05/26 15:14:00;;;;;;;;;;;;;;;;;;5040291;28;20300;-70
2023/05/26 15:16:27;;;;;;;;;;;;;;;;;;5057619;28;19932;-70
2023/05/26 15:18:57;;;;;;;;;;;;;;;;;;5039292;28;20250;-70
2023/05/26 15:21:24;;;;;;;;;;;;;;;;;;5046582;28;19931;-69
2023/05/26 15:23:51;;;;;;;;;;;;;;;;;;5046348;28;19925;-70
2023/05/26 15:26:18;;;;;;;;;;;;;;;;;;5049738;28;20007;-70
2023/05/26 15:28:45;;;;;;;;;;;;;;;;;;5045544;28;19979;-70
2023/05/26 15:31:12;;;;;;;;;;;;;;;;;;5047913;28;19924;-69
2023/05/26 15:33:39;;;;;;;;;;;;;;;;;;5044667;28;20058;-70
2023/05/26 15:36:06;;;;;;;;;;;;;;;;;;5047530;28;19929;-70
2023/05/26 15:38:33;;;;;;;;;;;;;;;;;;5041476;28;19924;-70
2023/05/26 15:41:00;;;;;;;;;;;;;;;;;;5044276;28;20027;-69
2023/05/26 15:43:27;;;;;;;;;;;;;;;;;;5042517;28;20012;-69
2023/05/26 15:45:54;;;;;;;;;;;;;;;;;;5042770;28;20032;-70
2023/05/26 15:48:21;;;;;;;;;;;;;;;;;;5041735;28;20022;-70
2023/05/26 15:50:48;;;;;;;;;;;;;;;;;;5046348;28;19925;-69
2023/05/26 15:53:15;;;;;;;;;;;;;;;;;;5047638;28;19924;-70
2023/05/26 15:55:42;;;;;;;;;;;;;;;;;;5042082;28;19931;-69
2023/05/26 15:58:09;;;;;;;;;;;;;;;;;;5046407;28;19931;-70
2023/05/26 16:00:36;;;;;;;;;;;;;;;;;;5044146;28;19924;-69
2023/05/26 16:03:03;;;;;;;;;;;;;;;;;;5042338;28;20467;-70
2023/05/26 16:05:30;;;;;;;;;;;;;;;;;;5047020;28;19929;-69
2023/05/26 16:07:57;;;;;;;;;;;;;;;;;;5036931;28;20015;-68
2023/05/26 16:10:24;;;;;;;;;;;;;;;;;;5036853;28;19925;-69
2023/05/26 16:12:51;;;;;;;;;;;;;;;;;;5041823;28;19968;-69
2023/05/26 16:15:18;;;;;;;;;;;;;;;;;;5051231;28;19924;-70
2023/05/26 16:17:45;;;;;;;;;;;;;;;;;;5049563;28;20020;-70
2023/05/26 16:20:12;;;;;;;;;;;;;;;;;;5047947;28;20011;-70
2023/05/26 16:22:39;;;;;;;;;;;;;;;;;;5046266;28;19925;-70
2023/05/26 16:25:06;;;;;;;;;;;;;;;;;;5049045;28;20318;-70
2023/05/26 16:27:33;;;;;;;;;;;;;;;;;;5047378;28;20023;-70
2023/05/26 16:30:00;;;;;;;;;;;;;;;;;;5042974;28;19925;-70
2023/05/26 16:32:27;;;;;;;;;;;;;;;;;;5047439;28;20024;-70
2023/05/26 16:34:54;;;;;;;;;;;;;;;;;;5050804;28;20019;-69
2023/05/26 16:37:21;;;;;;;;;;;;;;;;;;5043098;28;20077;-68
2023/05/26 16:39:48;;;;;;;;;;;;;;;;;;5039927;28;19963;-68
2023/05/26 16:42:15;;;;;;;;;;;;;;;;;;5046041;28;19925;-69
2023/05/26 16:44:42;;;;;;;;;;;;;;;;;;5040910;28;20020;-69